Historyczne dane pomiarowe

Dodano dane terminowe – wersja testowa.

Dane z okresu 1951-2019

Wersja bazy: 1.34 [2019-03-16, lista zmian], aktualizacja planowana na 2019-04-15

Dane meteo z obszaru Polski uzyskane na podstawie danych udostępnionych przez Instytut Meteorologii i Gospodarki Wodnej – Państwowy Instytut Badawczy.

 

Wybierz Datę:    

       

TemperaturaWilgotnośćWiatrCiśnienieOpadyŚniegCzas trwania zjawisk
 Stacja t tx tn tng RH VA  wxwx mslp ppp RRR   cm mm wxwxwxwxwxwxwx
1983-08-14 13.6 17.9 9.1 6.9 77.5- 5.0 4.0---- 0.0------------
1983-08-13 14.8 22.6 12.1 12.8 82.8- 8.0 4.7---- 8.5------------
1983-08-12 19.7 26.0 12.7 10.3 70.8- 2.3 2.7---- 12.8------------
1983-08-11 20.1 26.5 13.0 11.2 71.5- 4.7 2.7---- 0.0------------
1983-08-10 20.5 26.4 13.8 12.1 77.5- 2.3 1.3---- 0.0------------
1983-08-09 19.5 26.6 14.7 13.0 83.5- 6.0 3.0---- 12.9------------
1983-08-08 17.8 24.5 14.3 12.7 90.0- 8.0 4.3---- 2.8------------
1983-08-07 15.8 20.7 13.1 10.8 95.0- 8.0 1.3---- 10.3------------
1983-08-06 16.0 21.0 10.7 8.6 76.0- 7.0 2.3---- 1.4------------
1983-08-05 13.8 18.4 9.9 8.7 78.0- 7.0 4.3---- 0.0------------
1983-08-04 11.3 13.8 10.8 10.3 93.8- 8.0 6.0---- 0.6------------
1983-08-03 16.3 20.2 13.7 13.0 95.0- 8.0 4.0---- 3.7------------
1983-08-02 21.3 29.0 19.4 15.3 76.5- 7.3 2.7---- 16.0------------
1983-08-01 23.9 33.2 14.6 9.7 49.5- 0.0 7.0---- 0.0------------
1983-07-31 19.1 27.2 7.9 5.2 59.5- 0.0 0.7---- 0.0------------
1983-07-30 19.4 25.0 16.3 15.8 71.0- 5.7 7.7---- 0.0------------
1983-07-29 19.6 24.6 14.9 11.8 68.3- 7.0 8.0---- 2.0------------
1983-07-28 23.7 29.4 21.0 20.0 59.0- 6.3 4.3---- 0.0------------
1983-07-27 24.1 34.9 12.0 9.5 57.8- 1.7 0.3---- 0.0------------
1983-07-26 20.7 29.4 10.2 7.2 56.0- 0.0 0.7---- 0.0------------
1983-07-25 17.4 25.0 9.9 6.8 69.0- 4.3 1.7---- 0.0------------
1983-07-24 17.4 24.2 9.6 6.7 74.5- 8.0 2.0---- 0.0------------
1983-07-23 19.1 25.0 13.5 11.6 67.3- 4.0 5.3---- 0.0------------
1983-07-22 13.3 17.1 10.1 7.7 81.5- 8.0 5.7---- 0.3------------
1983-07-21 13.9 17.9 10.4 9.2 60.3- 7.0 6.7---- 0.0------------
1983-07-20 16.0 23.8 12.4 13.1 79.5- 8.0 4.3---- 0.7------------
1983-07-19 23.4 28.1 19.3 15.8 66.0- 5.0 5.0---- 3.7------------
1983-07-18 24.3 33.2 14.4 11.7 55.3- 0.7 3.7---- 0.0------------
1983-07-17 20.8 26.7 14.2 11.8 71.8- 5.7 2.7---- 0.0------------
1983-07-16 20.7 28.6 12.4 10.1 70.0- 4.7 2.7---- 0.0------------
1983-07-15 20.1 25.8 13.4 10.3 69.3- 4.0 2.0---- 0.0------------
1983-07-14 19.2 22.4 15.3 15.7 81.8- 7.3 7.0---- 0.0------------
1983-07-13 20.0 25.9 15.5 14.8 80.5- 6.3 5.7---- 0.0------------
1983-07-12 21.3 28.7 16.9 15.4 77.3- 8.0 5.7---- 12.5------------
1983-07-11 20.9 30.0 14.2 12.2 74.8- 8.0 5.7---- 11.0------------
1983-07-10 23.0 30.1 14.3 11.1 61.0- 2.7 2.3---- 0.0------------
1983-07-09 21.7 29.4 11.4 7.7 59.8- 1.3 1.3---- 0.0------------
1983-07-08 21.1 28.4 11.1 8.8 53.5- 0.0 2.3---- 0.0------------
1983-07-07 23.8 30.5 15.0 13.3 56.0- 2.0 2.0---- 0.0------------
1983-07-06 22.8 29.9 12.6 9.8 55.5- 1.0 4.7---- 0.0------------
1983-07-05 19.9 26.4 12.2 10.7 64.3- 3.7 2.7---- 0.0------------
1983-07-04 20.5 26.9 10.9 7.9 67.0- 5.3 0.7---- 0.0------------
1983-07-03 18.6 25.5 9.5 6.6 69.8- 4.3 1.0---- 0.0------------
1983-07-02 18.5 23.5 14.6 14.2 72.3- 4.0 3.0---- 0.0------------
1983-07-01 19.6 26.7 11.9 8.2 63.8- 6.0 1.0---- 0.0------------
1983-06-30 18.1 24.4 9.8 7.2 59.8- 4.7 3.7---- 0.0------------
1983-06-29 14.8 20.2 8.1 4.6 66.3- 5.3 3.0---- 0.0------------
1983-06-28 16.5 20.8 14.4 14.1 70.8- 6.7 4.0---- 0.0------------
1983-06-27 20.6 25.6 16.1 13.4 73.5- 6.3 3.3---- 1.9------------
1983-06-26 21.3 25.5 16.0 14.8 72.0- 5.7 1.7---- 0.0------------
1983-06-25 21.0 29.9 13.4 8.3 70.8- 4.3 4.0---- 3.6------------
1983-06-24 19.8 27.0 6.5 3.5 51.5- 0.7 1.7---- 0.0------------
1983-06-23 16.1 22.7 5.2 2.1 57.5- 0.0 1.0---- 0.0------------
1983-06-22 16.8 21.4 10.4 8.6 62.0- 2.3 4.7---- 0.0------------
1983-06-21 19.5 25.9 10.6 7.0 66.0- 2.0 1.3---- 0.0------------
1983-06-20 18.0 23.1 13.6 12.0 77.3- 7.0 3.7---- 0.0------------
1983-06-19 15.0 18.9 12.4 11.2 85.3- 8.0 5.7---- 0.5------------
1983-06-18 13.0 15.2 9.9 9.2 83.0- 8.0 4.0---- 0.0------------
1983-06-17 11.9 14.9 8.4 6.9 75.8- 8.0 5.7---- 0.3------------
1983-06-16 12.7 16.6 9.9 9.2 77.0- 8.0 6.7---- 0.0------------
401.8 ms

 

Źródłem pochodzenia danych jest Instytut Meteorologii i Gospodarki Wodnej – Państwowy Instytut Badawczy. Dane Instytutu Meteorologii i Gospodarki Wodnej – Państwowego Instytutu Badawczego zostały przetworzone.

Dane źródłowe można odnaleźć na stronie https://dane.imgw.pl